createdAt,value
2023-02-23T00:02:46.425Z,219.10
2023-02-23T00:12:59.108Z,239.15
2023-02-23T00:23:00.784Z,152.30
2023-02-23T00:33:02.709Z,211.48
2023-02-23T00:43:04.683Z,143.07
2023-02-23T00:53:11.457Z,85.30
2023-02-23T01:03:14.027Z,10.52
2023-02-23T01:13:18.291Z,21.38
2023-02-23T01:23:26.967Z,8.10
2023-02-23T01:33:32.944Z,8.25
2023-02-23T01:43:35.491Z,8.60
2023-02-23T01:53:44.981Z,7.20
2023-02-23T02:03:58.821Z,6.03
2023-02-23T02:14:28.072Z,23.80
2023-02-23T02:24:58.520Z,60.80
2023-02-23T02:35:51.816Z,109.22
2023-02-23T02:46:15.815Z,61.60
2023-02-23T02:56:22.298Z,161.32
2023-02-23T03:07:05.903Z,237.57
2023-02-23T03:17:43.440Z,238.95
2023-02-23T03:28:30.667Z,8.32
2023-02-23T03:39:04.368Z,8.15
2023-02-23T03:49:28.991Z,8.57
2023-02-23T03:59:57.510Z,7.45
2023-02-23T04:10:23.785Z,8.98
2023-02-23T04:20:29.011Z,9.85
2023-02-23T04:30:33.400Z,9.60
2023-02-23T04:40:35.813Z,274.10
2023-02-23T04:50:37.752Z,239.20
2023-02-23T05:00:41.056Z,8.52
2023-02-23T05:10:56.124Z,10.90
2023-02-23T05:21:08.959Z,9.60
2023-02-23T05:31:12.184Z,9.27
2023-02-23T05:41:23.313Z,9.10
2023-02-23T05:51:25.373Z,9.75
2023-02-23T06:01:28.210Z,11.38
2023-02-23T06:12:07.981Z,10.20
2023-02-23T06:22:17.897Z,131.68
2023-02-23T06:32:27.380Z,140.75
2023-02-23T06:42:36.085Z,107.68
2023-02-23T06:52:49.671Z,27.50
2023-02-23T07:02:53.748Z,163.73
2023-02-23T07:12:55.909Z,195.77
2023-02-23T07:23:07.152Z,101.57
2023-02-23T07:33:09.025Z,175.57
2023-02-23T07:43:13.886Z,161.25
2023-02-23T07:53:15.843Z,229.57
2023-02-23T08:03:25.369Z,79.35
2023-02-23T08:13:43.935Z,187.75
2023-02-23T08:23:50.733Z,314.88
2023-02-23T08:33:54.949Z,152.25
2023-02-23T08:44:00.611Z,297.08
2023-02-23T08:54:04.371Z,170.63
2023-02-23T09:04:07.417Z,313.08
2023-02-23T09:14:10.232Z,244.93
2023-02-23T09:24:12.243Z,168.27
2023-02-23T09:34:14.113Z,109.00
2023-02-23T09:44:24.332Z,278.77
2023-02-23T09:54:32.897Z,259.92
2023-02-23T10:04:59.537Z,345.33
2023-02-23T10:15:19.909Z,341.23
2023-02-23T10:25:26.281Z,298.90
2023-02-23T10:35:30.134Z,406.58
2023-02-23T10:45:40.446Z,342.75
2023-02-23T10:55:45.999Z,345.00
2023-02-23T11:05:53.084Z,311.88
2023-02-23T11:16:04.956Z,449.52
2023-02-23T11:26:23.772Z,398.30
2023-02-23T11:36:29.989Z,415.40
2023-02-23T11:46:35.953Z,395.08
2023-02-23T11:56:38.137Z,362.70
2023-02-23T12:06:42.261Z,353.17
2023-02-23T12:16:51.587Z,343.80
2023-02-23T12:27:13.045Z,325.05
2023-02-23T12:37:38.981Z,350.95
2023-02-23T12:48:06.398Z,323.27
2023-02-23T12:58:25.659Z,318.98
2023-02-23T13:08:42.534Z,323.83
2023-02-23T13:19:02.909Z,382.52
2023-02-23T13:29:39.246Z,443.17
2023-02-23T13:39:48.765Z,432.13
2023-02-23T13:50:23.213Z,418.65
2023-02-23T14:00:24.935Z,230.45
2023-02-23T14:10:45.770Z,329.13
2023-02-23T14:20:58.820Z,10.38
2023-02-23T14:31:20.544Z,10.38
2023-02-23T14:41:59.623Z,202.40
2023-02-23T14:52:08.367Z,390.05
2023-02-23T15:02:16.957Z,395.45
2023-02-23T15:12:28.624Z,383.65
2023-02-23T15:22:37.055Z,391.50
2023-02-23T15:32:38.884Z,375.17
2023-02-23T15:42:48.501Z,383.10
2023-02-23T15:52:56.173Z,318.92
2023-02-23T16:03:04.738Z,10.85
2023-02-23T16:13:07.612Z,9.75
2023-02-23T16:23:35.785Z,9.73
2023-02-23T16:34:00.443Z,8.95
2023-02-23T16:44:06.672Z,11.32
2023-02-23T16:54:11.796Z,29.67
2023-02-23T17:04:21.806Z,8.60
2023-02-23T17:14:30.725Z,35.80
2023-02-23T17:24:43.675Z,11.45
2023-02-23T17:34:46.302Z,20.73
2023-02-23T17:44:50.029Z,165.27
2023-02-23T17:54:55.866Z,13.65
2023-02-23T18:05:03.038Z,12.95
2023-02-23T18:15:09.511Z,13.52
2023-02-23T18:25:28.403Z,48.47
2023-02-23T18:35:36.516Z,14.77
2023-02-23T18:45:47.972Z,13.32
2023-02-23T18:56:06.519Z,15.10
2023-02-23T19:06:14.890Z,21.33
2023-02-23T19:16:20.105Z,18.98
2023-02-23T19:26:28.075Z,19.55
2023-02-23T19:36:37.147Z,19.00
2023-02-23T19:46:43.635Z,16.70
2023-02-23T19:56:47.815Z,17.77
2023-02-23T20:06:52.061Z,16.20
2023-02-23T20:16:57.019Z,18.52
2023-02-23T20:27:08.192Z,17.38
2023-02-23T20:37:15.282Z,16.42
2023-02-23T20:47:20.593Z,16.23
2023-02-23T20:57:23.402Z,16.60
2023-02-23T21:07:27.016Z,17.30
2023-02-23T21:27:32.502Z,16.08
2023-02-23T21:37:43.797Z,14.30
2023-02-23T21:47:50.781Z,14.98
2023-02-23T21:57:58.189Z,13.65
2023-02-23T22:08:02.001Z,13.45
2023-02-23T22:18:04.884Z,14.98
2023-02-23T22:28:09.433Z,13.10
2023-02-23T22:38:14.042Z,13.07
2023-02-23T22:48:15.770Z,13.77
2023-02-23T22:58:20.242Z,13.73
2023-02-23T23:08:22.531Z,12.95
2023-02-23T23:18:24.685Z,13.65
2023-02-23T23:28:40.156Z,15.35
2023-02-23T23:38:43.007Z,14.80
2023-02-23T23:48:49.846Z,14.10
2023-02-23T23:58:58.483Z,12.95
